Time;durP1;ratioP1;P1;durP2;ratioP2;P2;SDS_P1;SDS_P2;PMS_P1;PMS_P2;Temp;Humidity;BMP_temperature;BMP_pressure;BME280_temperature;BME280_humidity;BME280_pressure;Samples;Min_cycle;Max_cycle;Signal;HPM_P1;HPM_P2
2022/06/13 00:00:27;;;;;;;6.75;1.73;;;26.30;39.70;;;;;;4956837;28;20039;-67
2022/06/13 00:02:54;;;;;;;4.32;1.60;;;26.30;39.80;;;;;;4956526;28;20102;-67
2022/06/13 00:05:19;;;;;;;5.25;1.83;;;26.30;39.60;;;;;;4956716;28;20035;-66
2022/06/13 00:07:46;;;;;;;4.88;1.60;;;26.20;39.50;;;;;;4971259;28;20026;-67
2022/06/13 00:10:13;;;;;;;3.30;1.73;;;26.20;39.70;;;;;;4956392;28;20122;-67
2022/06/13 00:12:41;;;;;;;4.47;2.38;;;26.20;40.20;;;;;;4956561;28;20082;-66
2022/06/13 00:15:09;;;;;;;4.22;2.28;;;26.10;40.00;;;;;;4956163;28;20019;-67
2022/06/13 00:17:35;;;;;;;5.07;2.47;;;26.10;39.80;;;;;;4956272;28;20041;-66
2022/06/13 00:20:01;;;;;;;7.03;2.22;;;26.10;40.40;;;;;;4956106;28;20098;-67
2022/06/13 00:22:26;;;;;;;5.57;2.35;;;26.10;40.00;;;;;;4956417;28;20027;-67
2022/06/13 00:24:52;;;;;;;7.18;2.40;;;26.20;39.80;;;;;;4956165;28;20086;-66
2022/06/13 00:27:18;;;;;;;10.35;2.45;;;26.10;40.00;;;;;;4955898;28;20458;-67
2022/06/13 00:29:47;;;;;;;4.03;1.88;;;26.10;40.20;;;;;;4956464;28;20031;-66
2022/06/13 00:32:13;;;;;;;3.97;2.00;;;26.10;40.30;;;;;;4956368;28;20034;-67
2022/06/13 00:34:39;;;;;;;4.43;1.80;;;26.10;40.30;;;;;;4955978;28;20142;-67
2022/06/13 00:37:05;;;;;;;3.15;2.03;;;26.10;40.20;;;;;;4956220;28;20063;-66
2022/06/13 00:39:31;;;;;;;8.80;1.77;;;26.00;40.10;;;;;;4956029;28;20031;-67
2022/06/13 00:41:57;;;;;;;2.83;1.98;;;25.90;40.00;;;;;;4955982;28;20023;-67
2022/06/13 00:44:35;;;;;;;2.78;1.60;;;25.80;40.30;;;;;;4956125;28;20035;-67
2022/06/13 00:47:01;;;;;;;4.68;1.70;;;25.70;40.30;;;;;;4956156;28;20032;-68
2022/06/13 00:49:41;;;;;;;5.55;2.05;;;25.70;40.30;;;;;;4955950;28;20046;-67
2022/06/13 00:52:49;;;;;;;3.53;1.70;;;25.60;39.40;;;;;;4955733;28;20019;-68
2022/06/13 00:55:23;;;;;;;5.00;1.77;;;25.60;39.70;;;;;;4952611;28;20043;-68
2022/06/13 00:57:50;;;;;;;3.72;1.75;;;25.50;40.80;;;;;;4955727;28;20424;-67
2022/06/13 01:00:18;;;;;;;2.75;1.90;;;25.50;40.90;;;;;;4955537;28;20027;-67
2022/06/13 01:02:47;;;;;;;2.53;1.73;;;25.50;40.50;;;;;;4955326;28;20042;-67
2022/06/13 01:05:16;;;;;;;4.20;1.90;;;25.50;40.90;;;;;;4955438;28;20047;-66
2022/06/13 01:07:42;;;;;;;4.80;1.88;;;25.50;40.70;;;;;;4955344;28;20027;-66
2022/06/13 01:12:53;;;;;;;5.65;1.90;;;25.40;40.80;;;;;;4955581;29;20109;-67
2022/06/13 01:15:55;;;;;;;4.10;1.90;;;25.30;40.90;;;;;;4955166;28;20081;-66
2022/06/13 01:18:39;;;;;;;6.15;1.90;;;25.30;39.80;;;;;;4955684;28;20474;-67
2022/06/13 01:21:17;;;;;;;4.40;2.03;;;25.30;41.00;;;;;;4955045;28;20146;-67
2022/06/13 01:24:11;;;;;;;2.40;1.70;;;25.30;40.50;;;;;;4955299;28;20043;-66
2022/06/13 01:26:45;;;;;;;3.65;1.65;;;25.30;40.00;;;;;;4955061;28;20106;-66
2022/06/13 01:29:17;;;;;;;2.83;1.85;;;25.30;40.00;;;;;;4955286;28;20023;-66
2022/06/13 01:31:53;;;;;;;5.20;1.75;;;25.20;40.10;;;;;;4954585;28;20023;-65
2022/06/13 01:34:25;;;;;;;4.72;1.98;;;25.20;40.30;;;;;;4955040;28;20035;-68
2022/06/13 01:37:12;;;;;;;6.35;2.00;;;25.10;40.30;;;;;;4955020;28;20035;-67
2022/06/13 01:40:04;;;;;;;6.22;2.08;;;25.10;40.40;;;;;;4954983;28;20043;-67
2022/06/13 01:43:01;;;;;;;3.75;2.10;;;25.00;40.40;;;;;;4969594;28;20035;-66
2022/06/13 01:45:52;;;;;;;4.35;1.98;;;25.10;40.40;;;;;;4955059;28;20042;-67
2022/06/13 01:48:47;;;;;;;8.63;2.05;;;25.00;41.60;;;;;;4969663;28;20500;-67
2022/06/13 01:51:39;;;;;;;3.85;1.90;;;25.00;40.60;;;;;;4954609;28;20098;-67
2022/06/13 01:54:04;;;;;;;3.45;1.90;;;25.00;40.50;;;;;;4954892;28;20030;-66
2022/06/13 01:56:37;;;;;;;5.10;1.80;;;25.00;41.80;;;;;;4955001;28;20027;-68
2022/06/13 01:59:12;;;;;;;4.20;1.70;;;25.00;42.00;;;;;;4953489;28;20384;-65
2022/06/13 02:01:55;;;;;;;12.07;2.05;;;25.00;41.90;;;;;;4953579;29;20461;-66
2022/06/13 02:04:31;;;;;;;3.40;1.65;;;25.00;42.10;;;;;;4969483;28;20407;-67
2022/06/13 02:07:01;;;;;;;6.82;2.40;;;24.90;40.70;;;;;;4954753;28;20034;-66
2022/06/13 02:09:45;;;;;;;3.60;1.92;;;25.00;42.00;;;;;;4954568;28;20110;-68
2022/06/13 02:12:13;;;;;;;6.95;1.80;;;25.00;42.50;;;;;;4954681;28;20103;-68
2022/06/13 02:14:49;;;;;;;3.40;1.70;;;24.90;42.00;;;;;;4954571;28;20020;-69
2022/06/13 02:17:17;;;;;;;3.40;1.83;;;24.80;40.80;;;;;;4954594;28;20027;-68
2022/06/13 02:19:55;;;;;;;3.15;1.92;;;24.80;42.30;;;;;;4954590;28;20030;-66
2022/06/13 02:22:28;;;;;;;9.18;1.98;;;24.70;41.00;;;;;;4954668;28;20043;-67
2022/06/13 02:25:03;;;;;;;2.15;1.58;;;24.70;42.50;;;;;;4954803;28;20146;-68
2022/06/13 02:27:35;;;;;;;5.15;2.17;;;24.50;42.40;;;;;;4954546;28;20094;-66
2022/06/13 02:30:09;;;;;;;3.15;1.95;;;24.60;42.80;;;;;;4954595;28;20027;-68
2022/06/13 02:32:37;;;;;;;;;;;24.60;42.40;;;;;;4953652;28;20393;-67
2022/06/13 02:35:10;;;;;;;5.63;1.70;;;24.60;42.70;;;;;;4954582;28;19970;-67
2022/06/13 02:37:45;;;;;;;5.63;2.00;;;24.60;42.20;;;;;;4954535;28;20085;-66
2022/06/13 02:40:20;;;;;;;5.60;2.05;;;24.60;41.10;;;;;;4969187;28;20114;-69
2022/06/13 02:43:12;;;;;;;4.45;2.10;;;24.60;42.90;;;;;;4954807;28;20027;-66
2022/06/13 02:45:41;;;;;;;4.13;1.77;;;24.60;41.50;;;;;;4956803;29;20486;-65
2022/06/13 02:48:11;;;;;;;5.38;1.88;;;24.60;42.50;;;;;;4957936;28;20058;-68
2022/06/13 02:50:45;;;;;;;3.28;1.80;;;24.60;42.60;;;;;;4957951;28;20027;-67
2022/06/13 02:53:22;;;;;;;4.50;2.08;;;24.60;42.40;;;;;;4958066;28;20031;-67
2022/06/13 02:56:29;;;;;;;2.95;1.75;;;24.50;42.70;;;;;;4958007;28;20024;-68
2022/06/13 02:59:32;;;;;;;2.92;1.83;;;24.50;41.40;;;;;;4957562;29;20035;-67
2022/06/13 03:02:01;;;;;;;3.80;2.13;;;24.40;41.60;;;;;;4957652;28;20059;-68
2022/06/13 03:04:37;;;;;;;3.95;1.90;;;24.40;43.10;;;;;;4957521;28;20062;-68
2022/06/13 03:07:25;;;;;;;3.80;1.92;;;24.30;43.10;;;;;;4957640;28;20055;-67
2022/06/13 03:10:08;;;;;;;3.05;1.90;;;24.30;41.70;;;;;;4957436;28;20452;-66
2022/06/13 03:12:38;;;;;;;4.32;2.05;;;24.30;41.80;;;;;;4957663;29;20087;-67
2022/06/13 03:15:10;;;;;;;5.72;2.15;;;24.30;43.20;;;;;;4957551;28;20055;-68
2022/06/13 03:17:53;;;;;;;3.92;1.75;;;24.30;43.20;;;;;;4957544;28;20130;-67
2022/06/13 03:20:31;;;;;;;;;;;24.30;41.80;;;;;;4957594;28;20040;-67
2022/06/13 03:23:08;;;;;;;5.00;2.28;;;24.20;42.10;;;;;;4957640;28;19911;-65
2022/06/13 03:26:00;;;;;;;4.15;2.15;;;24.30;41.90;;;;;;4957319;28;20438;-68
2022/06/13 03:28:32;;;;;;;5.70;1.95;;;24.30;43.90;;;;;;4956907;28;20528;-68
2022/06/13 03:31:14;;;;;;;4.22;2.40;;;24.30;43.60;;;;;;4957336;28;20030;-68
2022/06/13 03:33:43;;;;;;;4.97;2.25;;;24.30;43.60;;;;;;4957236;28;20051;-67
2022/06/13 03:36:15;;;;;;;5.82;2.15;;;24.20;44.00;;;;;;4957192;28;20037;-66
2022/06/13 03:39:25;;;;;;;6.07;2.10;;;24.10;42.30;;;;;;4957239;28;20035;-67
2022/06/13 03:41:58;;;;;;;5.03;2.40;;;24.00;42.30;;;;;;4957294;28;20082;-67
2022/06/13 03:44:32;;;;;;;6.07;2.42;;;24.00;42.50;;;;;;4957193;28;20433;-66
2022/06/13 03:47:03;;;;;;;6.25;2.53;;;24.00;44.10;;;;;;4956890;28;20102;-67
2022/06/13 03:49:56;;;;;;;6.15;2.50;;;24.10;44.10;;;;;;4956686;28;20031;-70
2022/06/13 03:52:25;;;;;;;4.38;2.38;;;24.10;44.20;;;;;;4956530;28;20039;-67
2022/06/13 03:54:57;;;;;;;4.63;2.30;;;24.00;44.10;;;;;;4956329;28;20446;-68
2022/06/13 03:57:55;;;;;;;7.88;2.35;;;24.00;44.30;;;;;;4956887;28;20031;-66
2022/06/13 04:00:31;;;;;;;5.22;2.25;;;23.90;44.50;;;;;;4956185;28;20035;-69
2022/06/13 04:02:59;;;;;;;4.20;2.10;;;23.90;44.40;;;;;;4956742;28;20015;-67
2022/06/13 04:05:40;;;;;;;2.97;2.00;;;23.90;44.10;;;;;;4956603;28;20532;-69
2022/06/13 04:08:08;;;;;;;4.03;2.42;;;23.90;42.50;;;;;;4956622;28;20031;-66
2022/06/13 04:10:59;;;;;;;5.93;2.33;;;23.90;44.20;;;;;;4956230;28;20086;-65
2022/06/13 04:13:46;;;;;;;4.90;2.53;;;23.90;44.20;;;;;;4956255;29;20023;-67
2022/06/13 04:16:23;;;;;;;4.50;2.67;;;23.90;42.80;;;;;;4956246;28;20051;-67
2022/06/13 04:19:18;;;;;;;4.78;2.20;;;23.90;44.30;;;;;;4956374;28;20118;-65
2022/06/13 04:22:01;;;;;;;5.72;2.30;;;24.00;43.00;;;;;;4955995;28;20120;-69
2022/06/13 04:24:57;;;;;;;6.43;2.42;;;24.00;42.80;;;;;;4956400;28;20050;-66
2022/06/13 04:27:31;;;;;;;5.78;2.10;;;23.90;42.70;;;;;;4956538;28;20465;-65
2022/06/13 04:30:14;;;;;;;6.63;2.55;;;23.90;42.70;;;;;;4956191;28;20081;-68
2022/06/13 04:33:00;;;;;;;4.38;2.20;;;23.90;44.50;;;;;;4956357;28;20027;-68
2022/06/13 04:35:29;;;;;;;6.35;2.30;;;24.00;42.80;;;;;;4956632;28;20023;-65
2022/06/13 04:37:56;;;;;;;4.30;2.10;;;24.00;44.40;;;;;;4955998;28;20033;-66
2022/06/13 04:40:25;;;;;;;5.75;2.33;;;24.00;44.40;;;;;;4955700;28;20034;-67
2022/06/13 04:42:52;;;;;;;3.78;2.30;;;24.00;44.60;;;;;;4956091;28;20418;-67
2022/06/13 04:45:25;;;;;;;4.55;2.10;;;24.10;44.60;;;;;;4955780;28;20078;-68
2022/06/13 04:47:53;;;;;;;10.48;2.13;;;24.10;44.60;;;;;;4955829;28;20031;-66
2022/06/13 04:50:30;;;;;;;4.22;2.50;;;24.10;44.40;;;;;;4955551;28;20027;-68
2022/06/13 04:52:59;;;;;;;6.13;2.40;;;24.00;44.30;;;;;;4955378;28;20034;-69
2022/06/13 04:55:45;;;;;;;4.85;2.30;;;24.10;44.70;;;;;;4955551;29;20037;-66
2022/06/13 04:58:33;;;;;;;4.68;2.25;;;24.10;44.60;;;;;;4955404;28;20032;-67
2022/06/13 05:01:12;;;;;;;5.97;2.38;;;24.00;44.60;;;;;;4955578;28;20031;-68
2022/06/13 05:03:43;;;;;;;6.90;2.25;;;24.20;44.90;;;;;;4955420;28;20035;-68
2022/06/13 05:06:30;;;;;;;6.88;2.25;;;24.20;44.80;;;;;;4955048;28;20023;-69
2022/06/13 05:09:00;;;;;;;3.75;2.38;;;24.20;43.00;;;;;;4955513;28;20030;-65
2022/06/13 05:11:36;;;;;;;9.57;2.60;;;24.30;44.60;;;;;;4955860;28;20042;-68
2022/06/13 05:14:07;;;;;;;4.70;2.10;;;24.40;44.50;;;;;;4955406;29;20027;-67
2022/06/13 05:16:56;;;;;;;7.00;2.40;;;24.50;44.10;;;;;;4955335;28;20023;-70
2022/06/13 05:19:35;;;;;;;5.32;1.90;;;24.90;42.40;;;;;;4955176;28;20109;-64
2022/06/13 05:22:03;;;;;;;5.85;2.42;;;25.10;41.80;;;;;;4955243;28;20135;-67
2022/06/13 05:24:35;;;;;;;7.13;2.40;;;25.60;41.40;;;;;;4955412;28;20086;-69
2022/06/13 05:27:05;;;;;;;3.70;1.92;;;26.00;41.50;;;;;;4955081;28;20477;-69
2022/06/13 05:29:31;;;;;;;6.13;2.05;;;26.30;41.90;;;;;;4954905;28;20039;-67
2022/06/13 05:31:56;;;;;;;4.50;2.60;;;26.70;41.40;;;;;;4955457;28;20137;-68
2022/06/13 05:34:34;;;;;;;7.82;2.10;;;27.00;41.10;;;;;;4954792;28;20038;-68
2022/06/13 05:37:01;;;;;;;8.55;2.08;;;27.20;39.70;;;;;;4954875;28;20027;-68
2022/06/13 05:39:27;;;;;;;4.05;2.45;;;27.50;40.40;;;;;;4954768;28;20106;-68
2022/06/13 05:41:53;;;;;;;8.38;2.55;;;27.60;40.20;;;;;;4954565;28;20046;-68
2022/06/13 05:44:19;;;;;;;4.25;2.30;;;27.60;40.20;;;;;;4954436;28;20039;-67
2022/06/13 05:46:45;;;;;;;5.95;2.50;;;27.90;39.80;;;;;;4954813;28;20023;-67
2022/06/13 05:49:13;;;;;;;6.68;2.80;;;28.10;39.70;;;;;;4954845;28;20110;-66
2022/06/13 05:51:41;;;;;;;5.70;2.30;;;28.30;39.30;;;;;;4954704;28;20424;-67
2022/06/13 05:54:09;;;;;;;8.82;2.85;;;28.60;38.90;;;;;;4954568;28;20094;-68
2022/06/13 05:56:36;;;;;;;7.90;2.60;;;28.90;40.20;;;;;;4954681;28;20038;-65
2022/06/13 05:59:02;;;;;;;8.98;2.88;;;29.10;38.80;;;;;;4954510;28;20051;-70
2022/06/13 06:01:28;;;;;;;6.35;2.75;;;29.10;38.90;;;;;;4954442;28;20032;-70
2022/06/13 06:03:54;;;;;;;4.57;2.30;;;29.20;38.70;;;;;;4954289;28;20035;-72
2022/06/13 06:06:25;;;;;;;6.28;2.45;;;29.50;38.40;;;;;;4954571;28;20031;-68
2022/06/13 06:08:54;;;;;;;9.18;2.80;;;29.70;38.90;;;;;;4955870;28;20370;-69
2022/06/13 06:11:21;;;;;;;7.90;2.70;;;29.70;38.10;;;;;;4973058;28;20023;-68
2022/06/13 06:13:47;;;;;;;7.68;2.63;;;30.00;38.90;;;;;;4969287;28;20018;-70
2022/06/13 06:16:16;;;;;;;8.68;2.67;;;30.20;37.80;;;;;;4972546;28;20122;-68
2022/06/13 06:18:42;;;;;;;10.07;2.88;;;30.30;37.90;;;;;;4973542;28;20022;-66
2022/06/13 06:21:07;;;;;;;8.15;3.05;;;30.50;37.50;;;;;;4956781;28;20070;-69
2022/06/13 06:23:33;;;;;;;8.18;2.78;;;30.80;37.30;;;;;;4961995;28;20495;-70
2022/06/13 06:25:59;;;;;;;8.80;2.80;;;31.00;37.20;;;;;;4959276;28;20090;-67
2022/06/13 06:28:26;;;;;;;6.07;2.95;;;31.20;37.20;;;;;;4963592;28;20038;-68
2022/06/13 06:30:57;;;;;;;6.03;3.20;;;31.30;37.10;;;;;;4964389;28;20039;-66
2022/06/13 06:33:24;;;;;;;6.95;2.58;;;31.20;37.70;;;;;;4969244;28;20026;-67
2022/06/13 06:35:54;;;;;;;9.98;3.03;;;31.30;36.80;;;;;;4955899;28;20453;-66
2022/06/13 06:38:24;;;;;;;11.13;2.92;;;31.40;36.90;;;;;;4964950;28;20121;-67
2022/06/13 06:40:50;;;;;;;8.15;2.65;;;31.50;36.30;;;;;;4963601;28;20031;-68
2022/06/13 06:43:16;;;;;;;7.13;2.88;;;31.40;36.50;;;;;;4962670;28;20079;-68
2022/06/13 06:45:42;;;;;;;16.40;5.18;;;31.50;36.30;;;;;;4964767;28;20049;-70
2022/06/13 06:48:16;;;;;;;5.13;2.80;;;31.30;36.80;;;;;;4962756;28;20390;-68
2022/06/13 06:50:44;;;;;;;9.23;3.00;;;31.30;36.60;;;;;;4961184;28;20666;-69
2022/06/13 06:53:11;;;;;;;9.90;2.95;;;31.50;36.60;;;;;;4960835;28;20512;-69
2022/06/13 07:01:08;;;;;;;11.55;3.53;;;31.80;36.60;;;;;;4960789;28;20070;-70
2022/06/13 07:03:34;;;;;;;8.90;3.05;;;31.80;36.30;;;;;;4959183;28;20030;-68
2022/06/13 07:06:00;;;;;;;12.50;4.07;;;31.80;36.50;;;;;;4960558;28;20043;-72
2022/06/13 07:08:27;;;;;;;13.77;3.90;;;31.90;36.10;;;;;;4962165;28;20061;-75
2022/06/13 07:11:53;;;;;;;15.93;4.30;;;32.00;36.10;;;;;;4962887;28;20513;-70
2022/06/13 07:13:40;;;;;;;11.98;2.85;;;32.00;36.10;;;;;;4960943;28;20039;-69
2022/06/13 07:16:06;;;;;;;9.35;3.97;;;32.00;35.70;;;;;;4961831;28;20118;-67
2022/06/13 07:18:31;;;;;;;11.45;3.60;;;32.00;36.10;;;;;;4961102;28;20029;-65
2022/06/13 07:20:57;;;;;;;9.45;3.58;;;32.00;35.60;;;;;;4962344;28;20054;-68
2022/06/13 07:23:23;;;;;;;11.63;3.80;;;32.00;35.70;;;;;;4962063;28;20042;-69
2022/06/13 07:25:49;;;;;;;11.00;4.13;;;32.10;35.80;;;;;;4962410;28;20050;-70
2022/06/13 07:28:14;;;;;;;18.42;5.25;;;32.00;36.00;;;;;;4962212;28;20127;-73
2022/06/13 07:30:40;;;;;;;16.40;4.53;;;32.10;36.40;;;;;;4962233;28;20069;-71
2022/06/13 07:33:06;;;;;;;7.90;2.92;;;32.20;36.20;;;;;;4961981;28;20031;-68
2022/06/13 07:35:32;;;;;;;22.40;5.10;;;32.20;36.00;;;;;;4962903;28;20503;-70
2022/06/13 07:38:31;;;;;;;12.90;4.35;;;32.10;36.30;;;;;;4962421;28;20101;-74
2022/06/13 07:40:54;;;;;;;17.58;4.43;;;32.10;36.50;;;;;;4955845;28;20034;-69
2022/06/13 07:43:22;;;;;;;15.40;3.42;;;32.10;36.10;;;;;;4960910;28;20041;-71
2022/06/13 07:45:48;;;;;;;7.40;2.83;;;32.00;36.10;;;;;;4962377;28;20053;-70
2022/06/13 07:48:14;;;;;;;14.57;4.55;;;31.90;36.20;;;;;;4963881;28;20027;-70
2022/06/13 07:50:40;;;;;;;12.23;4.55;;;31.90;36.70;;;;;;4964351;28;20030;-74
2022/06/13 07:53:06;;;;;;;9.30;4.03;;;31.80;36.60;;;;;;4963910;28;21460;-72
2022/06/13 07:55:32;;;;;;;9.02;2.78;;;31.70;36.70;;;;;;4963873;28;20173;-73
2022/06/13 07:57:59;;;;;;;8.77;2.55;;;31.60;36.50;;;;;;4963947;28;20547;-69
2022/06/13 08:00:32;;;;;;;7.25;2.60;;;31.60;36.30;;;;;;4964443;28;20070;-72
2022/06/13 08:03:01;;;;;;;;;;;31.40;36.50;;;;;;4962575;28;20230;-71
2022/06/13 08:05:27;;;;;;;9.98;3.13;;;31.40;36.90;;;;;;4963552;28;20008;-72
2022/06/13 08:07:52;;;;;;;13.48;2.70;;;31.30;36.70;;;;;;4962041;28;20071;-69
2022/06/13 08:10:19;;;;;;;7.05;2.38;;;31.30;36.60;;;;;;4962865;28;20035;-71
2022/06/13 08:12:45;;;;;;;7.32;2.53;;;31.40;36.60;;;;;;4963895;28;20039;-74
2022/06/13 08:15:13;;;;;;;8.27;3.83;;;31.30;36.50;;;;;;4963258;28;20027;-67
2022/06/13 08:17:39;;;;;;;8.00;2.90;;;31.30;36.60;;;;;;4962442;28;20050;-66
2022/06/13 08:20:07;;;;;;;14.50;5.05;;;31.30;36.40;;;;;;4961818;28;20515;-66
2022/06/13 08:22:39;;;;;;;10.52;4.43;;;31.40;37.30;;;;;;4963051;28;20062;-67
2022/06/13 08:25:05;;;;;;;9.20;3.20;;;31.30;37.50;;;;;;4962225;28;21213;-69
2022/06/13 08:27:31;;;;;;;9.10;3.03;;;31.30;38.20;;;;;;4962376;28;20308;-66
2022/06/13 08:29:57;;;;;;;12.25;4.35;;;31.30;37.20;;;;;;4962676;28;20519;-67
2022/06/13 08:32:22;;;;;;;15.30;4.22;;;31.20;38.00;;;;;;4962436;28;20094;-69
2022/06/13 08:34:49;;;;;;;8.55;3.47;;;31.10;38.10;;;;;;4961897;28;20081;-73
2022/06/13 08:37:15;;;;;;;11.15;5.15;;;31.00;38.50;;;;;;4962548;28;20043;-70
2022/06/13 08:39:41;;;;;;;9.85;2.90;;;31.00;39.40;;;;;;4962347;28;20046;-69
2022/06/13 08:42:34;;;;;;;8.20;2.50;;;30.80;38.40;;;;;;4961843;28;20027;-68
2022/06/13 08:45:03;;;;;;;;;;;30.70;37.90;;;;;;4962315;28;20059;-68
2022/06/13 08:47:56;;;;;;;11.20;3.72;;;30.70;37.80;;;;;;4961285;28;20015;-66
2022/06/13 08:50:58;;;;;;;6.85;3.00;;;30.60;38.50;;;;;;4961740;28;20500;-68
2022/06/13 08:53:32;;;;;;;11.75;3.05;;;30.60;38.60;;;;;;4901438;29;20530;-67
2022/06/13 08:55:59;;;;;;;;;;;30.60;37.70;;;;;;4953371;28;20050;-67
2022/06/13 08:58:48;;;;;;;7.43;2.58;;;30.60;37.70;;;;;;4961628;28;19920;-72
2022/06/13 09:01:35;;;;;;;7.07;2.42;;;30.50;38.00;;;;;;4961784;28;20089;-68
2022/06/13 09:04:12;;;;;;;7.68;3.05;;;30.30;37.30;;;;;;4959938;28;20046;-70
2022/06/13 09:06:45;;;;;;;7.43;3.65;;;30.20;38.30;;;;;;4961463;28;20114;-65
2022/06/13 09:09:44;;;;;;;6.28;2.72;;;30.20;38.50;;;;;;4961324;28;20034;-67
2022/06/13 09:12:22;;;;;;;9.50;3.15;;;30.10;38.20;;;;;;4961752;28;20058;-67
2022/06/13 09:15:21;;;;;;;8.60;3.00;;;30.20;38.20;;;;;;4961346;28;20150;-68
2022/06/13 09:17:55;;;;;;;8.73;3.00;;;30.30;38.10;;;;;;4962522;28;20031;-74
2022/06/13 09:20:33;;;;;;;7.47;2.63;;;30.30;38.00;;;;;;4960821;28;20055;-67
2022/06/13 09:23:05;;;;;;;7.45;3.08;;;30.30;37.80;;;;;;4961569;28;20041;-70
2022/06/13 09:26:10;;;;;;;8.75;2.88;;;30.30;38.80;;;;;;4961045;28;20154;-67
2022/06/13 09:29:06;;;;;;;7.35;2.38;;;30.30;38.80;;;;;;4961087;28;20043;-69
2022/06/13 09:31:42;;;;;;;8.95;3.05;;;30.30;38.10;;;;;;4960791;28;20031;-67
2022/06/13 09:34:33;;;;;;;9.80;3.17;;;30.40;37.90;;;;;;4961024;28;20106;-67
2022/06/13 09:37:14;;;;;;;8.15;3.10;;;30.50;38.70;;;;;;4960481;28;20035;-69
2022/06/13 09:39:42;;;;;;;6.82;2.67;;;30.40;38.30;;;;;;4960998;28;20035;-67
2022/06/13 09:42:14;;;;;;;15.80;3.65;;;30.20;38.00;;;;;;4961084;28;20054;-68
2022/06/13 09:44:39;;;;;;;7.65;3.05;;;30.20;38.50;;;;;;4961237;28;20057;-67
2022/06/13 09:47:09;;;;;;;8.15;3.38;;;30.30;38.10;;;;;;4959500;28;20050;-68
2022/06/13 09:49:49;;;;;;;8.05;2.83;;;30.40;38.30;;;;;;4961650;28;20057;-68
2022/06/13 09:52:37;;;;;;;9.63;3.20;;;30.40;38.10;;;;;;4961199;28;20115;-74
2022/06/13 09:55:26;;;;;;;9.43;2.88;;;30.40;38.60;;;;;;4960365;28;20045;-67
2022/06/13 09:58:20;;;;;;;8.52;3.13;;;30.40;38.00;;;;;;4934398;28;20047;-67
2022/06/13 10:00:57;;;;;;;6.13;2.85;;;30.40;38.30;;;;;;4961836;28;20073;-68
2022/06/13 10:03:58;;;;;;;9.85;2.85;;;30.50;37.70;;;;;;4962329;28;20034;-67
2022/06/13 10:06:37;;;;;;;7.00;2.60;;;30.50;38.20;;;;;;4960918;28;20387;-67
2022/06/13 10:09:09;;;;;;;7.25;2.60;;;30.60;38.20;;;;;;4962855;28;20453;-67
2022/06/13 10:12:03;;;;;;;8.65;2.78;;;30.70;37.80;;;;;;4963731;28;20122;-68
2022/06/13 10:14:53;;;;;;;7.25;3.08;;;30.60;37.70;;;;;;4963181;28;20117;-69
2022/06/13 10:17:49;;;;;;;7.30;2.80;;;30.60;38.10;;;;;;4962678;28;20053;-70
2022/06/13 10:20:31;;;;;;;7.75;2.70;;;30.50;37.60;;;;;;4960416;28;20078;-71
2022/06/13 10:23:22;;;;;;;8.23;3.30;;;30.60;37.30;;;;;;4962384;28;20034;-67
2022/06/13 10:25:56;;;;;;;5.32;2.45;;;30.70;37.60;;;;;;4962245;28;20511;-68
2022/06/13 10:28:44;;;;;;;5.90;2.85;;;30.80;36.80;;;;;;4961804;28;20035;-68
2022/06/13 10:31:51;;;;;;;5.85;2.30;;;30.70;36.70;;;;;;4960515;28;20113;-72
2022/06/13 10:34:38;;;;;;;5.25;2.30;;;30.80;36.30;;;;;;4939099;28;20046;-72
2022/06/13 10:37:27;;;;;;;7.80;3.53;;;30.80;36.50;;;;;;4959727;28;20554;-72
2022/06/13 10:39:58;;;;;;;12.07;3.95;;;30.80;35.80;;;;;;4949768;28;20035;-71
2022/06/13 10:42:27;;;;;;;12.35;3.58;;;31.00;37.40;;;;;;4960407;28;20058;-72
2022/06/13 10:44:53;;;;;;;9.00;3.00;;;31.00;36.90;;;;;;4960433;28;20078;-71
2022/06/13 10:47:23;;;;;;;10.40;2.75;;;31.10;37.20;;;;;;4959785;28;20369;-72
2022/06/13 10:49:58;;;;;;;4.38;2.40;;;31.10;37.10;;;;;;4960971;28;20214;-72
2022/06/13 10:52:30;;;;;;;5.43;2.40;;;31.20;36.60;;;;;;4961875;28;20031;-73
2022/06/13 10:55:00;;;;;;;10.45;2.63;;;31.10;35.50;;;;;;4962207;28;20400;-72
2022/06/13 10:57:34;;;;;;;7.25;2.70;;;31.20;34.90;;;;;;4963229;28;20027;-71
2022/06/13 11:00:21;;;;;;;4.32;2.53;;;31.20;34.80;;;;;;4961541;28;20162;-72
2022/06/13 11:02:47;;;;;;;5.40;2.42;;;31.20;35.70;;;;;;4960437;28;20493;-73
2022/06/13 11:05:25;;;;;;;7.07;3.00;;;31.30;35.90;;;;;;4965193;28;20062;-72
2022/06/13 11:07:58;;;;;;;11.88;3.30;;;31.30;35.50;;;;;;4965329;28;20031;-73
2022/06/13 11:10:36;;;;;;;8.63;3.08;;;31.40;35.70;;;;;;4964898;28;20033;-73
2022/06/13 11:13:05;;;;;;;8.45;2.72;;;31.50;35.40;;;;;;4964829;28;20031;-73
2022/06/13 11:25:04;;;;;;;7.55;2.63;;;31.70;36.00;;;;;;4964445;28;20420;-75
2022/06/13 11:27:41;;;;;;;7.55;3.25;;;31.70;36.10;;;;;;4951839;28;20074;-77
2022/06/13 11:30:28;;;;;;;8.50;3.10;;;31.80;35.40;;;;;;4965327;28;20373;-74
2022/06/13 11:33:09;;;;;;;8.55;2.88;;;31.80;36.00;;;;;;4966320;28;20070;-77
2022/06/13 11:35:56;;;;;;;10.30;3.22;;;31.80;36.00;;;;;;4965964;28;20030;-75
2022/06/13 11:38:31;;;;;;;5.63;2.90;;;31.80;35.20;;;;;;4965824;28;20042;-80
2022/06/13 11:41:20;;;;;;;7.25;3.03;;;31.90;35.40;;;;;;4970995;28;20038;-76
2022/06/13 11:43:46;;;;;;;6.47;2.60;;;31.80;35.50;;;;;;4968938;28;20043;-79
2022/06/13 11:46:23;;;;;;;5.38;2.42;;;31.90;34.80;;;;;;4970819;28;20543;-78
2022/06/13 11:48:50;;;;;;;12.55;2.95;;;32.10;35.00;;;;;;4963213;28;20678;-75
2022/06/13 11:51:22;;;;;;;7.13;2.90;;;32.10;35.70;;;;;;4964614;28;20027;-75
2022/06/13 11:53:50;;;;;;;6.33;2.53;;;32.10;35.20;;;;;;4963927;28;20548;-74
2022/06/13 11:56:42;;;;;;;9.30;5.13;;;32.20;35.20;;;;;;4962031;28;20054;-78
2022/06/13 11:59:15;;;;;;;10.75;4.93;;;32.20;35.00;;;;;;4959690;28;20087;-75
2022/06/13 12:01:42;;;;;;;5.88;2.90;;;32.20;34.90;;;;;;4963924;28;20023;-74
2022/06/13 12:04:13;;;;;;;5.13;2.33;;;32.20;35.10;;;;;;4963491;28;20483;-75
2022/06/13 12:06:44;;;;;;;7.93;2.28;;;32.20;34.80;;;;;;4958128;28;20027;-75
2022/06/13 12:09:21;;;;;;;6.05;2.47;;;32.20;34.90;;;;;;4939508;28;20402;-75
2022/06/13 12:11:57;;;;;;;5.22;2.70;;;32.10;35.10;;;;;;4940938;28;20544;-78
2022/06/13 12:14:25;;;;;;;12.20;2.72;;;32.10;35.10;;;;;;4942182;28;20031;-78
2022/06/13 12:17:04;;;;;;;7.30;2.33;;;32.20;34.40;;;;;;4955188;28;20022;-74
2022/06/13 12:19:43;;;;;;;7.10;2.55;;;32.20;34.40;;;;;;4960440;28;20559;-72
2022/06/13 12:22:33;;;;;;;8.55;2.78;;;32.10;34.50;;;;;;4963378;28;20062;-75
2022/06/13 12:25:02;;;;;;;7.75;2.60;;;32.10;34.60;;;;;;4960576;28;20043;-69
2022/06/13 12:27:43;;;;;;;6.45;2.55;;;32.10;34.30;;;;;;4960628;28;20038;-70
2022/06/13 12:30:11;;;;;;;5.53;2.42;;;32.10;34.70;;;;;;4960761;28;20046;-72
2022/06/13 12:32:46;;;;;;;9.57;2.60;;;32.10;34.30;;;;;;4960566;28;20031;-69
2022/06/13 12:35:30;;;;;;;6.03;2.60;;;32.20;34.40;;;;;;4961179;28;20436;-70
2022/06/13 12:38:19;;;;;;;5.95;2.28;;;32.20;34.40;;;;;;4959353;28;20696;-69
2022/06/13 12:40:52;;;;;;;9.60;2.58;;;32.20;34.60;;;;;;4960660;28;20534;-72
2022/06/13 12:43:48;;;;;;;7.18;3.05;;;32.20;34.60;;;;;;4961374;28;20062;-71
2022/06/13 12:46:26;;;;;;;8.30;3.45;;;32.20;34.50;;;;;;4960087;28;20046;-73
2022/06/13 12:49:24;;;;;;;13.93;3.60;;;32.30;34.60;;;;;;4961095;28;20039;-73
2022/06/13 12:52:09;;;;;;;10.00;3.60;;;32.40;34.20;;;;;;4907406;28;20056;-73
2022/06/13 12:54:50;;;;;;;4.72;2.20;;;32.50;34.50;;;;;;4960789;28;20026;-71
2022/06/13 12:57:38;;;;;;;7.82;2.20;;;32.40;34.80;;;;;;4960582;28;20058;-69
2022/06/13 13:00:25;;;;;;;11.60;3.28;;;32.50;34.70;;;;;;4960329;28;20031;-71
2022/06/13 13:03:13;;;;;;;9.90;2.38;;;32.50;34.60;;;;;;4960320;28;20705;-75
2022/06/13 13:05:44;;;;;;;13.98;3.50;;;32.50;34.20;;;;;;4958890;28;20157;-71
2022/06/13 13:08:35;;;;;;;9.73;2.53;;;32.50;35.00;;;;;;4960042;28;20038;-72
2022/06/13 13:11:37;;;;;;;5.53;2.53;;;32.50;34.70;;;;;;4960377;28;20042;-70
2022/06/13 13:14:11;;;;;;;8.27;2.47;;;32.50;35.50;;;;;;4960610;28;20140;-76
2022/06/13 13:16:39;;;;;;;3.97;2.00;;;32.50;34.40;;;;;;4959797;28;20504;-72
2022/06/13 13:19:25;;;;;;;7.20;2.25;;;32.60;35.10;;;;;;4958993;28;20043;-75
2022/06/13 13:22:06;;;;;;;5.55;2.50;;;32.60;34.90;;;;;;4959422;28;20098;-73
2022/06/13 13:25:05;;;;;;;5.95;2.30;;;32.60;35.30;;;;;;4960216;28;20043;-70
2022/06/13 13:27:50;;;;;;;5.55;2.20;;;32.60;35.30;;;;;;4961409;28;20441;-72
2022/06/13 13:30:25;;;;;;;6.78;2.42;;;32.50;34.80;;;;;;4962794;28;20660;-71
2022/06/13 13:33:01;;;;;;;6.43;1.98;;;32.50;35.10;;;;;;4962013;28;20034;-72
2022/06/13 13:35:55;;;;;;;6.32;2.47;;;32.50;35.90;;;;;;4960415;28;20039;-72
2022/06/13 13:38:32;;;;;;;8.70;2.50;;;32.50;36.50;;;;;;4962560;28;20027;-72
2022/06/13 13:41:04;;;;;;;7.97;2.90;;;32.50;35.40;;;;;;4962114;28;20092;-74
2022/06/13 13:43:33;;;;;;;9.27;2.67;;;32.50;35.30;;;;;;4962033;28;20027;-73
2022/06/13 13:46:11;;;;;;;7.18;3.10;;;32.50;35.70;;;;;;4961055;28;20069;-73